sensor_id;sensor_type;location;lat;lon;timestamp;P1;durP1;ratioP1;P2;durP2;ratioP2
31010;SDS011;26395;53.412;19.598;2022-07-29T00:03:59;10.30;;;4.90;;
31010;SDS011;26395;53.412;19.598;2022-07-29T00:19:02;12.90;;;6.20;;
31010;SDS011;26395;53.412;19.598;2022-07-29T00:34:06;15.90;;;8.20;;
31010;SDS011;26395;53.412;19.598;2022-07-29T00:49:29;18.10;;;7.70;;
31010;SDS011;26395;53.412;19.598;2022-07-29T01:04:32;17.90;;;6.30;;
31010;SDS011;26395;53.412;19.598;2022-07-29T01:50:17;7.80;;;4.30;;
31010;SDS011;26395;53.412;19.598;2022-07-29T02:05:23;7.20;;;3.90;;
31010;SDS011;26395;53.412;19.598;2022-07-29T02:20:30;4.60;;;3.40;;
31010;SDS011;26395;53.412;19.598;2022-07-29T02:35:35;4.80;;;3.10;;
31010;SDS011;26395;53.412;19.598;2022-07-29T02:50:44;7.80;;;2.80;;
31010;SDS011;26395;53.412;19.598;2022-07-29T03:05:56;3.60;;;2.30;;
31010;SDS011;26395;53.412;19.598;2022-07-29T03:21:01;7.10;;;3.40;;
31010;SDS011;26395;53.412;19.598;2022-07-29T03:36:05;4.30;;;3.00;;
31010;SDS011;26395;53.412;19.598;2022-07-29T03:51:08;6.60;;;2.80;;
31010;SDS011;26395;53.412;19.598;2022-07-29T04:06:11;6.90;;;2.80;;
31010;SDS011;26395;53.412;19.598;2022-07-29T04:21:15;4.10;;;2.90;;
31010;SDS011;26395;53.412;19.598;2022-07-29T04:36:25;3.80;;;2.60;;
31010;SDS011;26395;53.412;19.598;2022-07-29T04:51:34;3.30;;;2.20;;
31010;SDS011;26395;53.412;19.598;2022-07-29T05:06:41;8.40;;;3.80;;
31010;SDS011;26395;53.412;19.598;2022-07-29T05:21:45;8.20;;;2.80;;
31010;SDS011;26395;53.412;19.598;2022-07-29T05:36:48;2.20;;;1.50;;
31010;SDS011;26395;53.412;19.598;2022-07-29T05:51:51;1.90;;;1.40;;
31010;SDS011;26395;53.412;19.598;2022-07-29T06:06:54;2.50;;;1.10;;
31010;SDS011;26395;53.412;19.598;2022-07-29T06:21:57;3.60;;;1.20;;
31010;SDS011;26395;53.412;19.598;2022-07-29T06:37:08;0.70;;;0.70;;
31010;SDS011;26395;53.412;19.598;2022-07-29T06:52:17;0.80;;;0.70;;
31010;SDS011;26395;53.412;19.598;2022-07-29T07:07:21;0.80;;;0.50;;
31010;SDS011;26395;53.412;19.598;2022-07-29T07:22:24;2.30;;;0.90;;
31010;SDS011;26395;53.412;19.598;2022-07-29T07:37:27;0.90;;;0.70;;
31010;SDS011;26395;53.412;19.598;2022-07-29T07:52:31;0.60;;;0.30;;
31010;SDS011;26395;53.412;19.598;2022-07-29T08:07:34;1.20;;;0.80;;
31010;SDS011;26395;53.412;19.598;2022-07-29T08:22:38;3.00;;;1.00;;
31010;SDS011;26395;53.412;19.598;2022-07-29T08:37:41;2.00;;;0.50;;
31010;SDS011;26395;53.412;19.598;2022-07-29T08:52:44;1.50;;;0.70;;
31010;SDS011;26395;53.412;19.598;2022-07-29T09:07:50;1.40;;;0.60;;
31010;SDS011;26395;53.412;19.598;2022-07-29T09:22:54;1.20;;;0.60;;
31010;SDS011;26395;53.412;19.598;2022-07-29T09:37:57;2.80;;;0.90;;
31010;SDS011;26395;53.412;19.598;2022-07-29T09:53:01;3.20;;;0.70;;
31010;SDS011;26395;53.412;19.598;2022-07-29T10:08:05;1.40;;;1.10;;
31010;SDS011;26395;53.412;19.598;2022-07-29T10:23:09;0.70;;;0.50;;
31010;SDS011;26395;53.412;19.598;2022-07-29T10:53:45;1.40;;;0.70;;
31010;SDS011;26395;53.412;19.598;2022-07-29T11:24:28;2.30;;;0.70;;
31010;SDS011;26395;53.412;19.598;2022-07-29T11:54:48;2.50;;;1.50;;
31010;SDS011;26395;53.412;19.598;2022-07-29T12:10:03;1.00;;;0.70;;
31010;SDS011;26395;53.412;19.598;2022-07-29T12:25:08;0.70;;;0.60;;
31010;SDS011;26395;53.412;19.598;2022-07-29T12:40:34;1.80;;;1.00;;
31010;SDS011;26395;53.412;19.598;2022-07-29T12:55:45;1.30;;;1.00;;
31010;SDS011;26395;53.412;19.598;2022-07-29T13:10:54;4.20;;;3.20;;
31010;SDS011;26395;53.412;19.598;2022-07-29T13:26:04;3.20;;;1.30;;
31010;SDS011;26395;53.412;19.598;2022-07-29T13:41:09;14.30;;;11.70;;
31010;SDS011;26395;53.412;19.598;2022-07-29T13:56:13;1.60;;;1.10;;
31010;SDS011;26395;53.412;19.598;2022-07-29T14:11:16;1.20;;;0.70;;
31010;SDS011;26395;53.412;19.598;2022-07-29T14:26:20;2.30;;;0.60;;
31010;SDS011;26395;53.412;19.598;2022-07-29T14:41:26;4.10;;;1.50;;
31010;SDS011;26395;53.412;19.598;2022-07-29T14:56:31;1.10;;;0.70;;
31010;SDS011;26395;53.412;19.598;2022-07-29T15:11:39;4.80;;;1.10;;
31010;SDS011;26395;53.412;19.598;2022-07-29T15:26:42;1.80;;;0.80;;
31010;SDS011;26395;53.412;19.598;2022-07-29T15:41:46;1.50;;;1.10;;
31010;SDS011;26395;53.412;19.598;2022-07-29T15:56:49;1.70;;;1.30;;
31010;SDS011;26395;53.412;19.598;2022-07-29T16:11:52;2.60;;;0.70;;
31010;SDS011;26395;53.412;19.598;2022-07-29T16:26:57;2.90;;;1.10;;
31010;SDS011;26395;53.412;19.598;2022-07-29T16:42:03;2.50;;;0.90;;
31010;SDS011;26395;53.412;19.598;2022-07-29T16:57:07;1.30;;;0.90;;
31010;SDS011;26395;53.412;19.598;2022-07-29T17:12:12;5.90;;;2.40;;
31010;SDS011;26395;53.412;19.598;2022-07-29T17:27:15;1.40;;;1.00;;
31010;SDS011;26395;53.412;19.598;2022-07-29T17:42:20;3.20;;;1.10;;
31010;SDS011;26395;53.412;19.598;2022-07-29T17:57:23;3.40;;;2.00;;
31010;SDS011;26395;53.412;19.598;2022-07-29T18:12:26;2.10;;;1.40;;
31010;SDS011;26395;53.412;19.598;2022-07-29T18:27:30;5.70;;;1.50;;
31010;SDS011;26395;53.412;19.598;2022-07-29T18:42:33;3.80;;;1.70;;
31010;SDS011;26395;53.412;19.598;2022-07-29T18:57:37;5.30;;;3.00;;
31010;SDS011;26395;53.412;19.598;2022-07-29T19:12:58;3.50;;;2.00;;
31010;SDS011;26395;53.412;19.598;2022-07-29T19:28:02;6.70;;;1.90;;
31010;SDS011;26395;53.412;19.598;2022-07-29T19:43:06;4.60;;;2.40;;
31010;SDS011;26395;53.412;19.598;2022-07-29T19:58:30;2.20;;;1.40;;
31010;SDS011;26395;53.412;19.598;2022-07-29T20:13:34;3.40;;;1.60;;
31010;SDS011;26395;53.412;19.598;2022-07-29T20:28:37;5.20;;;1.80;;
31010;SDS011;26395;53.412;19.598;2022-07-29T20:43:43;7.20;;;2.20;;
31010;SDS011;26395;53.412;19.598;2022-07-29T20:58:49;9.70;;;4.30;;
31010;SDS011;26395;53.412;19.598;2022-07-29T21:13:52;7.80;;;3.90;;
31010;SDS011;26395;53.412;19.598;2022-07-29T21:28:55;8.20;;;3.60;;
31010;SDS011;26395;53.412;19.598;2022-07-29T21:43:59;10.20;;;4.70;;
31010;SDS011;26395;53.412;19.598;2022-07-29T21:59:03;7.80;;;3.50;;
31010;SDS011;26395;53.412;19.598;2022-07-29T22:29:17;26.40;;;12.80;;
31010;SDS011;26395;53.412;19.598;2022-07-29T22:44:20;9.80;;;4.80;;
31010;SDS011;26395;53.412;19.598;2022-07-29T22:59:24;7.30;;;4.30;;
31010;SDS011;26395;53.412;19.598;2022-07-29T23:14:27;10.80;;;4.80;;
31010;SDS011;26395;53.412;19.598;2022-07-29T23:29:30;10.60;;;3.80;;
31010;SDS011;26395;53.412;19.598;2022-07-29T23:44:38;6.60;;;2.40;;
31010;SDS011;26395;53.412;19.598;2022-07-29T23:59:41;3.30;;;2.20;;
